Portada
METAR-TAF:

METAR-TAF

Aeroports :

Tanabe, Japó

latitud: 33-44N, longitud: 135-23E, altitud: 105 m

Observació

L'informe es va fer fa 27 minuts, a les 05:00 UTC
Vent 5 kt del Nord, variant entre Nord-Oest i Nord-Est
Temperatura 20°C
Humitat 94%
Pressió 1011 hPa
Visibilitat: 9000 m
Escasses núvols a una alçada de 300 ft
Núvols disperses a una alçada de 2000 ft
Escasses núvols a una alçada de 3000 ft, Cumulonimbus.
Cel ennuvolat a una alçada de 9000 ft
xàfecs de pluja

METAR: RJBD 210500Z 01005KT 320V040 9000 SHRA FEW003 SCT020 FEW030CB BKN090 20/19 Q1011

Hora: 14:27 (05:27 UTC)


TAF: manca

Observacions i pronòstics meteorològics de més de 4000 aeroports (METAR i TAF).

Les estacions disponibles són els punts grocs i vermells al mapa.

Posi el ratolí al punt desitjat per veure el nom de l'estació.

Feu clic per veure les observacions i els pronòstics meteorològics.

Per canviar el mapa: feu clic els botons verds amb una creu de color negre per apropar; al botó verd amb un guió per allunyar la imatge; o en les fletxes verdes per a mapes adjacents.


METAR-TAF: